Calling Lake, Canada
Current Conditions -  °F | °C
As of 7:00 PM on Sunday 21 Dec 2014 (Local Time) from CYZH Reporting Station
Light Snow Light Snow  
Wind Chill: 15°   Ceiling: 2000
Heat Index: 23°   Visibility: 1.2mi
Dew Point: 23°   Wind: 7mph
Humidity: 100%   Direction: 310°NW
Pressure: 29.55"   Gusts: NA
Location:  55.25°N, 113.2°W
Report Text: CYZH 220200Z AUTO 31006KT 1 1/4SM -SN OVC020 M05/M05 A2955 RMK SLP041
Loading
Personal Weather Stations






























Interactive Weather Map New forecast layout! Learn more

10-Day Weather Forecast

Advertisements
Track Severe Weather on mobile